Time;durP1;ratioP1;P1;durP2;ratioP2;P2;SDS_P1;SDS_P2;PMS_P1;PMS_P2;Temp;Humidity;BMP_temperature;BMP_pressure;BME280_temperature;BME280_humidity;BME280_pressure;Samples;Min_cycle;Max_cycle;Signal;HPM_P1;HPM_P2
2022/03/06 00:01:11;;;;;;;0.40;0.20;;;2.00;70.10;;;;;;4991121;28;20390;-73
2022/03/06 00:03:37;;;;;;;0.40;0.20;;;1.90;69.40;;;;;;4973565;28;20485;-72
2022/03/06 00:06:03;;;;;;;0.40;0.20;;;1.90;70.10;;;;;;4991023;28;20466;-71
2022/03/06 00:08:28;;;;;;;1.00;0.90;;;1.80;71.00;;;;;;4989845;28;20470;-73
2022/03/06 00:10:56;;;;;;;0.50;0.50;;;1.80;71.20;;;;;;4990812;28;20418;-73
2022/03/06 00:13:22;;;;;;;0.40;0.25;;;1.70;70.70;;;;;;4990460;28;20410;-74
2022/03/06 00:15:48;;;;;;;0.40;0.20;;;1.70;71.30;;;;;;4991468;28;20710;-73
2022/03/06 00:18:13;;;;;;;0.40;0.20;;;1.60;71.40;;;;;;4991133;28;20799;-71
2022/03/06 00:20:42;;;;;;;0.40;0.20;;;1.60;71.80;;;;;;4988805;28;20402;-71
2022/03/06 00:23:08;;;;;;;0.40;0.20;;;1.60;72.30;;;;;;4990774;28;20429;-71
2022/03/06 00:25:34;;;;;;;0.40;0.20;;;1.60;72.10;;;;;;4990213;28;20860;-71
2022/03/06 00:28:00;;;;;;;0.40;0.30;;;1.50;71.60;;;;;;4990884;28;20395;-71
2022/03/06 00:30:26;;;;;;;0.40;0.20;;;1.50;72.40;;;;;;4990433;28;20441;-72
2022/03/06 00:32:52;;;;;;;0.50;0.50;;;1.40;72.50;;;;;;4989731;28;20449;-72
2022/03/06 00:35:18;;;;;;;0.50;0.50;;;1.40;73.20;;;;;;4990711;28;20871;-72
2022/03/06 00:37:44;;;;;;;3.10;1.10;;;1.50;74.30;;;;;;4990048;28;20847;-72
2022/03/06 00:40:10;;;;;;;0.40;0.30;;;1.50;73.90;;;;;;4973455;28;20747;-72
2022/03/06 00:42:36;;;;;;;0.40;0.20;;;1.50;73.50;;;;;;4990859;28;20782;-72
2022/03/06 00:45:03;;;;;;;0.40;0.20;;;1.50;73.00;;;;;;4990088;28;20383;-72
2022/03/06 00:47:29;;;;;;;0.80;0.80;;;1.40;73.50;;;;;;4973342;28;20410;-72
2022/03/06 00:49:55;;;;;;;0.70;0.70;;;1.30;73.70;;;;;;4989968;28;20747;-72
2022/03/06 00:52:21;;;;;;;0.40;0.20;;;1.30;74.30;;;;;;4990817;28;20410;-71
2022/03/06 00:54:47;;;;;;;0.40;0.20;;;1.40;74.30;;;;;;4991086;28;20390;-72
2022/03/06 00:57:12;;;;;;;0.60;0.60;;;1.40;74.10;;;;;;4989623;28;20385;-72
2022/03/06 00:59:38;;;;;;;0.80;0.80;;;1.30;74.80;;;;;;4990343;28;20878;-72
2022/03/06 01:02:06;;;;;;;0.70;0.70;;;1.20;75.00;;;;;;4989855;28;20429;-72
2022/03/06 01:04:32;;;;;;;0.70;0.60;;;1.30;75.50;;;;;;4990623;28;21006;-72
2022/03/06 01:06:58;;;;;;;0.40;0.20;;;1.30;75.30;;;;;;4990468;28;20455;-72
2022/03/06 01:09:24;;;;;;;0.50;0.50;;;1.40;75.80;;;;;;4989911;28;20398;-72
2022/03/06 01:11:51;;;;;;;0.60;0.60;;;1.30;76.30;;;;;;4990388;28;20442;-72
2022/03/06 01:14:17;;;;;;;0.40;0.30;;;1.20;76.10;;;;;;4972390;28;20406;-72
2022/03/06 01:16:43;;;;;;;0.40;0.20;;;1.30;76.50;;;;;;4990499;28;20418;-72
2022/03/06 01:19:08;;;;;;;0.40;0.20;;;1.20;76.90;;;;;;4990142;28;20484;-73
2022/03/06 01:21:34;;;;;;;0.40;0.20;;;1.30;76.40;;;;;;4990685;28;20489;-72
2022/03/06 01:24:00;;;;;;;0.40;0.20;;;1.10;77.40;;;;;;4972687;28;20863;-72
2022/03/06 01:26:25;;;;;;;0.40;0.20;;;1.10;78.30;;;;;;4972026;28;20403;-73
2022/03/06 01:28:51;;;;;;;0.40;0.20;;;1.00;78.40;;;;;;4990140;28;20398;-72
2022/03/06 01:31:17;;;;;;;0.90;0.60;;;1.00;77.80;;;;;;4989467;28;20441;-73
2022/03/06 01:33:43;;;;;;;0.40;0.20;;;1.10;78.00;;;;;;4993566;28;20394;-72
2022/03/06 01:36:08;;;;;;;1.30;0.80;;;0.90;78.50;;;;;;4976456;28;20954;-72
2022/03/06 01:38:34;;;;;;;1.23;1.07;;;0.90;78.90;;;;;;4993080;28;20397;-72
2022/03/06 01:41:00;;;;;;;0.40;0.20;;;0.80;79.40;;;;;;4993746;28;20783;-72
2022/03/06 01:43:25;;;;;;;0.40;0.20;;;0.80;79.80;;;;;;4992701;28;20464;-73
2022/03/06 01:45:51;;;;;;;0.40;0.20;;;0.90;80.00;;;;;;4993849;28;20429;-72
2022/03/06 01:48:17;;;;;;;5.80;1.00;;;0.90;80.30;;;;;;4993957;28;20473;-72
2022/03/06 01:50:44;;;;;;;0.40;0.30;;;0.80;80.40;;;;;;4975003;28;20394;-73
2022/03/06 01:53:11;;;;;;;0.40;0.20;;;0.80;81.20;;;;;;4976049;28;20402;-72
2022/03/06 01:55:39;;;;;;;1.10;0.80;;;0.70;82.10;;;;;;4992734;28;20383;-73
2022/03/06 01:58:07;;;;;;;0.70;0.70;;;0.80;82.00;;;;;;4992766;28;20398;-72
2022/03/06 02:00:44;;;;;;;0.40;0.20;;;0.70;83.00;;;;;;4975572;28;20430;-72
2022/03/06 02:03:13;;;;;;;0.40;0.20;;;0.50;83.90;;;;;;4972933;28;20510;-72
2022/03/06 02:05:39;;;;;;;0.40;0.20;;;0.50;85.10;;;;;;4975497;28;20934;-73
2022/03/06 02:08:05;;;;;;;0.40;0.30;;;0.50;85.80;;;;;;4992972;28;20383;-72
2022/03/06 02:10:32;;;;;;;0.63;0.50;;;0.40;85.70;;;;;;4992583;28;20934;-72
2022/03/06 02:12:58;;;;;;;0.40;0.20;;;0.50;87.10;;;;;;4958439;28;20771;-73
2022/03/06 02:15:25;;;;;;;1.00;0.60;;;0.30;88.50;;;;;;4993263;28;20441;-72
2022/03/06 02:17:51;;;;;;;0.40;0.20;;;0.30;88.10;;;;;;4992493;28;20453;-73
2022/03/06 02:20:19;;;;;;;0.40;0.20;;;0.30;89.70;;;;;;4992899;28;20398;-72
2022/03/06 02:22:48;;;;;;;0.40;0.30;;;0.30;88.60;;;;;;4992993;28;20414;-72
2022/03/06 02:25:22;;;;;;;0.70;0.70;;;0.20;88.70;;;;;;4992219;28;20458;-72
2022/03/06 02:27:49;;;;;;;0.40;0.20;;;0.20;89.30;;;;;;4992749;28;20382;-72
2022/03/06 02:30:17;;;;;;;0.40;0.20;;;0.20;89.60;;;;;;4974948;28;20466;-72
2022/03/06 02:32:44;;;;;;;0.40;0.20;;;0.10;90.10;;;;;;4959107;28;20492;-72
2022/03/06 02:35:10;;;;;;;0.40;0.25;;;0.20;90.40;;;;;;4991482;28;20430;-72
2022/03/06 02:37:37;;;;;;;0.40;0.20;;;0.20;90.70;;;;;;4975143;28;20433;-72
2022/03/06 02:40:05;;;;;;;0.50;0.50;;;0.10;90.70;;;;;;4974198;28;20398;-73
2022/03/06 02:42:33;;;;;;;0.40;0.20;;;0.10;91.30;;;;;;4992860;28;20390;-72
2022/03/06 02:45:09;;;;;;;0.40;0.20;;;0.20;90.80;;;;;;4991646;28;20444;-72
2022/03/06 02:47:35;;;;;;;0.40;0.38;;;0.20;90.80;;;;;;4975061;28;20387;-72
2022/03/06 02:50:02;;;;;;;0.40;0.20;;;0.10;91.30;;;;;;4992332;28;20399;-72
2022/03/06 02:52:28;;;;;;;0.40;0.20;;;0.10;91.10;;;;;;4991527;28;20430;-72
2022/03/06 02:54:54;;;;;;;0.40;0.20;;;0.10;91.60;;;;;;4975199;28;20394;-72
2022/03/06 02:57:20;;;;;;;0.40;0.20;;;0.10;92.00;;;;;;4974190;28;20448;-72
2022/03/06 02:59:45;;;;;;;0.40;0.40;;;0.20;91.30;;;;;;4991857;28;20822;-72
2022/03/06 03:02:11;;;;;;;0.40;0.20;;;0.20;91.20;;;;;;4992650;28;20902;-72
2022/03/06 03:04:38;;;;;;;0.40;0.20;;;0.20;91.00;;;;;;4991315;28;20449;-72
2022/03/06 03:07:05;;;;;;;0.40;0.20;;;0.20;91.20;;;;;;4974719;28;20402;-72
2022/03/06 03:09:31;;;;;;;0.40;0.20;;;0.10;91.40;;;;;;4991139;28;20390;-72
2022/03/06 03:11:57;;;;;;;0.40;0.20;;;0.10;91.80;;;;;;4991762;28;20441;-72
2022/03/06 03:14:23;;;;;;;0.40;0.30;;;0.00;92.00;;;;;;4974528;28;20390;-72
2022/03/06 03:16:49;;;;;;;0.50;0.45;;;0.00;92.10;;;;;;4991484;28;20394;-72
2022/03/06 03:19:15;;;;;;;0.40;0.20;;;0.00;92.60;;;;;;4992026;28;20387;-72
2022/03/06 03:21:41;;;;;;;0.40;0.20;;;0.00;92.30;;;;;;4973129;28;20416;-72
2022/03/06 03:24:07;;;;;;;0.40;0.20;;;0.00;92.60;;;;;;4991909;28;20394;-72
2022/03/06 03:26:33;;;;;;;0.40;0.30;;;0.10;92.80;;;;;;4974099;28;20466;-71
2022/03/06 03:28:59;;;;;;;0.40;0.20;;;0.00;92.60;;;;;;4991141;28;20485;-71
2022/03/06 03:31:25;;;;;;;0.40;0.30;;;0.00;92.60;;;;;;4992598;28;20871;-73
2022/03/06 03:33:51;;;;;;;0.40;0.20;;;0.00;93.00;;;;;;4974041;28;20420;-71
2022/03/06 03:36:16;;;;;;;0.40;0.20;;;0.00;94.30;;;;;;4992667;28;20939;-72
2022/03/06 03:38:42;;;;;;;0.40;0.20;;;-0.10;94.00;;;;;;4991990;28;20891;-72
2022/03/06 03:41:08;;;;;;;0.50;0.50;;;0.00;93.20;;;;;;4991939;28;20394;-71
2022/03/06 03:43:34;;;;;;;0.40;0.20;;;-0.10;93.60;;;;;;4991689;28;20391;-71
2022/03/06 03:46:00;;;;;;;0.40;0.20;;;-0.10;93.80;;;;;;4991126;28;20402;-72
2022/03/06 03:48:27;;;;;;;0.40;0.30;;;-0.10;93.80;;;;;;4974435;28;20395;-71
2022/03/06 03:50:53;;;;;;;0.60;0.50;;;-0.20;94.10;;;;;;4991186;28;20402;-72
2022/03/06 03:53:20;;;;;;;1.13;1.13;;;-0.20;94.30;;;;;;4991848;28;20524;-72
2022/03/06 03:55:46;;;;;;;0.40;0.20;;;-0.20;94.00;;;;;;4974453;28;20398;-72
2022/03/06 03:58:12;;;;;;;0.40;0.20;;;-0.10;94.00;;;;;;4973085;28;20405;-72
2022/03/06 04:00:38;;;;;;;0.80;0.80;;;-0.30;94.40;;;;;;4991600;28;20453;-71
2022/03/06 04:03:04;;;;;;;0.40;0.20;;;-0.30;94.20;;;;;;4990638;28;20911;-72
2022/03/06 04:05:30;;;;;;;0.40;0.20;;;-0.30;94.90;;;;;;4990543;28;20434;-72
2022/03/06 04:07:55;;;;;;;0.40;0.20;;;-0.40;94.10;;;;;;4991599;28;20728;-72
2022/03/06 04:10:21;;;;;;;0.70;0.50;;;-0.40;94.30;;;;;;4972951;28;20847;-70
2022/03/06 04:12:47;;;;;;;0.40;0.40;;;-0.50;94.70;;;;;;4990670;28;20423;-70
2022/03/06 04:15:12;;;;;;;0.40;0.20;;;-0.60;95.20;;;;;;4990454;28;20470;-71
2022/03/06 04:17:38;;;;;;;0.47;0.30;;;-0.60;95.90;;;;;;4990816;28;20422;-71
2022/03/06 04:20:04;;;;;;;0.40;0.20;;;-0.70;96.30;;;;;;4990936;28;20410;-71
2022/03/06 04:22:30;;;;;;;0.40;0.28;;;-0.60;96.10;;;;;;4972246;28;20407;-71
2022/03/06 04:24:56;;;;;;;1.40;0.60;;;-0.70;96.50;;;;;;4973763;28;20509;-71
2022/03/06 04:27:22;;;;;;;0.90;0.60;;;-0.60;96.10;;;;;;4990363;28;20391;-71
2022/03/06 04:29:47;;;;;;;0.40;0.20;;;-0.50;95.80;;;;;;4973624;28;20391;-71
2022/03/06 04:32:13;;;;;;;0.40;0.30;;;-0.60;96.70;;;;;;4991045;28;20415;-71
2022/03/06 04:34:39;;;;;;;0.40;0.20;;;-0.60;96.40;;;;;;4990738;28;20382;-71
2022/03/06 04:37:05;;;;;;;0.40;0.20;;;-0.80;97.60;;;;;;4990946;28;20550;-71
2022/03/06 04:39:31;;;;;;;0.40;0.30;;;-0.70;97.90;;;;;;4990560;28;20390;-71
2022/03/06 04:41:57;;;;;;;0.40;0.20;;;-0.90;98.80;;;;;;4991068;28;20390;-73
2022/03/06 04:44:23;;;;;;;0.80;0.80;;;-0.80;98.20;;;;;;4973232;28;20798;-73
2022/03/06 04:46:49;;;;;;;0.40;0.30;;;-0.80;98.20;;;;;;4990392;28;20386;-73
2022/03/06 04:49:15;;;;;;;0.60;0.60;;;-0.80;97.10;;;;;;4973934;28;20540;-72
2022/03/06 04:51:40;;;;;;;0.40;0.30;;;-0.80;97.10;;;;;;4972848;28;20549;-73
2022/03/06 04:54:07;;;;;;;0.40;0.30;;;-0.80;97.50;;;;;;4991315;28;20387;-72
2022/03/06 04:56:33;;;;;;;0.40;0.40;;;-0.90;98.20;;;;;;4991249;28;20387;-73
2022/03/06 04:58:59;;;;;;;0.40;0.40;;;-0.90;97.80;;;;;;4989580;28;20478;-73
2022/03/06 05:01:24;;;;;;;0.40;0.30;;;-0.90;97.60;;;;;;4990960;28;20386;-72
2022/03/06 05:03:50;;;;;;;0.40;0.20;;;-0.90;98.20;;;;;;4990213;28;20433;-72
2022/03/06 05:06:16;;;;;;;0.60;0.60;;;-1.00;98.80;;;;;;4990885;28;20383;-72
2022/03/06 05:08:41;;;;;;;0.40;0.20;;;-0.90;99.10;;;;;;4977123;28;20407;-72
2022/03/06 05:11:07;;;;;;;0.40;0.20;;;-0.90;99.10;;;;;;4993155;28;20426;-72
2022/03/06 05:13:33;;;;;;;0.90;0.60;;;-1.00;98.70;;;;;;4977463;28;20400;-72
2022/03/06 05:15:58;;;;;;;0.50;0.50;;;-0.90;99.10;;;;;;4994078;28;20402;-72
2022/03/06 05:18:24;;;;;;;0.40;0.20;;;-1.00;99.90;;;;;;4994208;28;20390;-72
2022/03/06 05:20:50;;;;;;;0.40;0.20;;;-0.90;99.60;;;;;;4994608;28;20402;-72
2022/03/06 05:23:17;;;;;;;0.40;0.20;;;-0.80;99.80;;;;;;4993517;28;20890;-72
2022/03/06 05:25:44;;;;;;;0.80;0.70;;;-0.80;99.40;;;;;;4994172;28;20393;-72
2022/03/06 05:28:10;;;;;;;0.45;0.35;;;-0.80;98.20;;;;;;4993747;28;20428;-72
2022/03/06 05:30:36;;;;;;;0.40;0.30;;;-0.80;98.20;;;;;;4994023;28;20382;-72
2022/03/06 05:33:03;;;;;;;0.40;0.20;;;-0.90;98.60;;;;;;4994046;28;20462;-72
2022/03/06 05:35:29;;;;;;;0.40;0.20;;;-0.90;98.30;;;;;;4993787;28;20461;-72
2022/03/06 05:37:54;;;;;;;0.40;0.30;;;-0.80;98.90;;;;;;4994251;28;20417;-72
2022/03/06 05:40:20;;;;;;;1.20;1.10;;;-0.80;98.20;;;;;;4993106;28;20880;-72
2022/03/06 05:42:46;;;;;;;0.40;0.20;;;-0.80;98.30;;;;;;4976608;28;20406;-72
2022/03/06 05:45:11;;;;;;;0.40;0.20;;;-0.90;99.80;;;;;;4993578;28;20437;-72
2022/03/06 05:47:37;;;;;;;0.50;0.50;;;-0.90;99.50;;;;;;4993473;28;20794;-72
2022/03/06 05:50:05;;;;;;;0.40;0.20;;;-0.90;99.90;;;;;;4993851;28;20394;-71
2022/03/06 05:52:31;;;;;;;0.40;0.20;;;-0.90;99.90;;;;;;4993185;28;20417;-72
2022/03/06 05:54:57;;;;;;;0.60;0.40;;;-0.90;98.80;;;;;;4993613;28;20402;-71
2022/03/06 05:57:24;;;;;;;0.40;0.20;;;-0.90;99.00;;;;;;4993199;28;20437;-73
2022/03/06 05:59:50;;;;;;;0.40;0.20;;;-0.80;98.80;;;;;;4993732;28;20843;-72
2022/03/06 06:02:15;;;;;;;0.95;0.80;;;-0.90;99.10;;;;;;4976426;28;20430;-71
2022/03/06 06:04:41;;;;;;;0.90;0.50;;;-0.90;99.10;;;;;;4975950;28;20437;-72
2022/03/06 06:07:07;;;;;;;0.40;0.20;;;-0.90;99.30;;;;;;4994103;28;20870;-71
2022/03/06 06:09:33;;;;;;;0.60;0.60;;;-0.90;99.10;;;;;;4993371;28;20465;-70
2022/03/06 06:11:58;;;;;;;0.40;0.20;;;-1.00;99.10;;;;;;4993783;28;20895;-72
2022/03/06 06:14:24;;;;;;;0.40;0.20;;;-0.90;99.90;;;;;;4991708;28;20461;-70
2022/03/06 06:16:50;;;;;;;0.40;0.30;;;-1.00;99.90;;;;;;4975217;28;20395;-70
2022/03/06 06:19:15;;;;;;;0.40;0.30;;;-1.00;99.90;;;;;;4992008;28;20398;-71
2022/03/06 06:21:43;;;;;;;0.40;0.40;;;-1.00;99.90;;;;;;4974671;28;20414;-71
2022/03/06 06:24:13;;;;;;;0.40;0.20;;;-1.20;99.90;;;;;;4993299;28;20375;-72
2022/03/06 06:26:40;;;;;;;0.40;0.20;;;-1.20;99.90;;;;;;4975717;28;20382;-72
2022/03/06 06:29:06;;;;;;;0.40;0.20;;;-1.30;99.90;;;;;;4973919;28;20460;-72
2022/03/06 06:31:32;;;;;;;0.40;0.30;;;-1.30;99.90;;;;;;4992295;28;20414;-73
2022/03/06 06:33:58;;;;;;;0.40;0.20;;;-1.30;99.90;;;;;;4991529;28;20394;-72
2022/03/06 06:36:24;;;;;;;0.50;0.50;;;-1.20;99.90;;;;;;4993059;28;20860;-72
2022/03/06 06:38:50;;;;;;;0.70;0.52;;;-1.00;99.90;;;;;;4992752;28;20379;-72
2022/03/06 06:41:15;;;;;;;0.40;0.20;;;-0.90;99.90;;;;;;4992108;28;20574;-70
2022/03/06 06:43:42;;;;;;;0.40;0.20;;;-0.90;99.90;;;;;;4993061;28;20390;-70
2022/03/06 06:46:08;;;;;;;0.40;0.20;;;-0.90;99.90;;;;;;4992357;28;20422;-71
2022/03/06 06:48:34;;;;;;;0.40;0.20;;;-0.80;99.90;;;;;;4992452;28;20395;-70
2022/03/06 06:51:00;;;;;;;0.40;0.20;;;-0.70;99.90;;;;;;4992747;28;20402;-71
2022/03/06 06:53:26;;;;;;;0.50;0.50;;;-0.70;99.90;;;;;;4991644;28;20445;-70
2022/03/06 06:55:51;;;;;;;0.40;0.20;;;-0.60;99.70;;;;;;4992587;28;20386;-70
2022/03/06 06:58:17;;;;;;;0.80;0.80;;;-0.60;99.50;;;;;;4991956;28;20394;-71
2022/03/06 07:00:43;;;;;;;0.43;0.35;;;-0.40;99.30;;;;;;4992240;28;20394;-71
2022/03/06 07:03:09;;;;;;;0.60;0.50;;;-0.30;98.60;;;;;;4992254;28;20393;-72
2022/03/06 07:05:35;;;;;;;0.40;0.20;;;-0.30;98.10;;;;;;4992030;28;20394;-71
2022/03/06 07:08:00;;;;;;;0.40;0.20;;;-0.30;98.30;;;;;;4992298;28;20490;-71
2022/03/06 07:10:26;;;;;;;6.40;1.00;;;-0.20;97.80;;;;;;4991756;28;20474;-71
2022/03/06 07:12:55;;;;;;;0.40;0.20;;;0.00;97.50;;;;;;4974125;28;20957;-71
2022/03/06 07:15:27;;;;;;;0.40;0.20;;;0.00;96.80;;;;;;4991439;28;20386;-72
2022/03/06 07:17:55;;;;;;;0.40;0.30;;;0.10;96.60;;;;;;4992474;28;20386;-72
2022/03/06 07:20:21;;;;;;;0.40;0.30;;;0.20;96.40;;;;;;4974757;28;20409;-73
2022/03/06 07:22:47;;;;;;;0.40;0.20;;;0.40;96.30;;;;;;4974292;28;20395;-72
2022/03/06 07:25:12;;;;;;;0.57;0.57;;;0.50;95.90;;;;;;4974369;28;20758;-72
2022/03/06 07:27:38;;;;;;;0.40;0.20;;;0.60;95.20;;;;;;4991471;28;20394;-72
2022/03/06 07:30:04;;;;;;;0.40;0.20;;;0.80;95.10;;;;;;4992041;28;20422;-72
2022/03/06 07:32:30;;;;;;;0.40;0.20;;;0.80;94.80;;;;;;4991350;28;20502;-73
2022/03/06 07:34:55;;;;;;;0.40;0.20;;;1.00;94.00;;;;;;4973470;28;20485;-72
2022/03/06 07:37:21;;;;;;;0.40;0.20;;;1.10;93.80;;;;;;4974558;28;20406;-72
2022/03/06 07:39:47;;;;;;;1.40;1.30;;;1.20;93.00;;;;;;4991201;28;20474;-72
2022/03/06 07:42:13;;;;;;;1.70;0.70;;;1.20;92.90;;;;;;4991039;28;20401;-72
2022/03/06 07:44:39;;;;;;;0.40;0.20;;;1.30;92.70;;;;;;4973950;28;20398;-73
2022/03/06 07:47:05;;;;;;;0.40;0.40;;;1.40;92.50;;;;;;4974079;28;20391;-72
2022/03/06 07:49:30;;;;;;;0.40;0.40;;;1.50;92.20;;;;;;4992062;28;20448;-72
2022/03/06 07:51:56;;;;;;;0.40;0.30;;;1.50;92.10;;;;;;4972889;28;20795;-73
2022/03/06 07:54:22;;;;;;;0.40;0.30;;;1.60;92.20;;;;;;4990764;28;20390;-72
2022/03/06 07:56:48;;;;;;;0.43;0.25;;;1.80;91.90;;;;;;4991377;28;20903;-73
2022/03/06 07:59:14;;;;;;;0.55;0.55;;;1.90;91.50;;;;;;4991446;28;20513;-72
2022/03/06 08:01:40;;;;;;;1.50;0.90;;;1.90;91.30;;;;;;4974234;28;20478;-72
2022/03/06 08:04:06;;;;;;;0.40;0.30;;;1.90;91.40;;;;;;4988116;28;20398;-72
2022/03/06 08:06:31;;;;;;;0.40;0.20;;;2.00;91.10;;;;;;4991305;28;20887;-72
2022/03/06 08:08:57;;;;;;;0.70;0.70;;;2.10;91.20;;;;;;4973541;28;20393;-74
2022/03/06 08:11:23;;;;;;;0.90;0.80;;;2.10;90.90;;;;;;4990929;28;20415;-73
2022/03/06 08:13:49;;;;;;;0.50;0.50;;;2.20;90.50;;;;;;4991433;28;20440;-73
2022/03/06 08:16:15;;;;;;;0.40;0.20;;;2.30;90.20;;;;;;4973118;28;20409;-73
2022/03/06 08:18:40;;;;;;;0.40;0.20;;;2.40;89.60;;;;;;4990838;28;20513;-73
2022/03/06 08:21:06;;;;;;;1.40;0.80;;;2.40;88.90;;;;;;4973153;28;20410;-73
2022/03/06 08:23:31;;;;;;;2.70;0.80;;;2.60;90.70;;;;;;4990879;28;20389;-72
2022/03/06 08:25:57;;;;;;;0.40;0.37;;;2.60;88.70;;;;;;4973866;28;20480;-71
2022/03/06 08:28:23;;;;;;;0.70;0.70;;;2.70;87.20;;;;;;4990593;28;20431;-73
2022/03/06 08:30:48;;;;;;;0.40;0.40;;;2.70;87.20;;;;;;4991383;28;20540;-73
2022/03/06 08:33:14;;;;;;;0.40;0.20;;;2.80;86.30;;;;;;4989838;28;20907;-73
2022/03/06 08:35:40;;;;;;;0.50;0.40;;;2.80;86.30;;;;;;4990982;28;20473;-71
2022/03/06 08:38:06;;;;;;;0.40;0.30;;;2.90;86.70;;;;;;4973401;28;20895;-71
2022/03/06 08:40:31;;;;;;;0.40;0.40;;;2.90;86.20;;;;;;4990054;28;20411;-72
2022/03/06 08:42:57;;;;;;;0.50;0.40;;;3.00;85.30;;;;;;4993413;28;20458;-71
2022/03/06 08:45:24;;;;;;;0.40;0.40;;;3.10;85.60;;;;;;4993766;28;20461;-72
2022/03/06 08:47:50;;;;;;;0.40;0.40;;;3.20;85.90;;;;;;4995081;28;20387;-71
2022/03/06 08:50:16;;;;;;;0.80;0.80;;;3.20;84.30;;;;;;4995245;28;20401;-72
2022/03/06 08:52:41;;;;;;;0.40;0.40;;;3.40;84.40;;;;;;4993641;28;20425;-71
2022/03/06 08:55:09;;;;;;;0.40;0.30;;;3.50;85.00;;;;;;4994833;28;20890;-71
2022/03/06 08:57:35;;;;;;;0.40;0.20;;;3.60;84.30;;;;;;4994445;28;20390;-72
2022/03/06 09:00:04;;;;;;;0.40;0.30;;;3.60;82.60;;;;;;4994626;28;20416;-72
2022/03/06 09:02:30;;;;;;;0.40;0.20;;;3.70;82.10;;;;;;4992363;28;20507;-73
2022/03/06 09:04:55;;;;;;;0.70;0.70;;;3.60;81.30;;;;;;4993706;28;20812;-73
2022/03/06 09:07:21;;;;;;;1.23;0.50;;;3.70;81.70;;;;;;4990177;28;20399;-72
2022/03/06 09:09:47;;;;;;;0.40;0.20;;;3.90;82.60;;;;;;4976263;28;20481;-73
2022/03/06 09:12:12;;;;;;;0.50;0.50;;;3.70;80.20;;;;;;4992256;28;20450;-72
2022/03/06 09:14:38;;;;;;;0.50;0.50;;;4.30;81.60;;;;;;4991480;28;20485;-73
2022/03/06 09:17:04;;;;;;;0.60;0.60;;;4.00;77.90;;;;;;4973131;28;20439;-73
2022/03/06 09:19:30;;;;;;;0.40;0.20;;;4.00;78.50;;;;;;4976964;28;20739;-72
2022/03/06 09:21:56;;;;;;;0.60;0.60;;;3.90;77.90;;;;;;4993580;28;20407;-73
2022/03/06 09:24:21;;;;;;;1.00;0.90;;;4.30;78.80;;;;;;4994594;28;20378;-73
2022/03/06 09:26:47;;;;;;;0.50;0.50;;;4.50;77.40;;;;;;4993789;28;20886;-73
2022/03/06 09:29:13;;;;;;;0.40;0.30;;;4.50;75.80;;;;;;4976849;28;20375;-73
2022/03/06 09:31:43;;;;;;;2.40;0.70;;;4.50;76.00;;;;;;4993582;28;20478;-73
2022/03/06 09:34:09;;;;;;;0.40;0.20;;;4.40;74.90;;;;;;4987189;28;20929;-73
2022/03/06 09:36:37;;;;;;;0.40;0.30;;;4.40;75.10;;;;;;4994677;28;20463;-72
2022/03/06 09:39:03;;;;;;;0.80;0.80;;;4.50;75.60;;;;;;4990733;28;20394;-74
2022/03/06 09:41:30;;;;;;;0.40;0.30;;;4.60;74.50;;;;;;4976089;28;20399;-73
2022/03/06 09:43:57;;;;;;;0.50;0.50;;;4.50;72.50;;;;;;4993176;28;20398;-73
2022/03/06 09:46:24;;;;;;;0.40;0.20;;;4.60;73.70;;;;;;4987956;28;20399;-72
2022/03/06 09:48:50;;;;;;;2.10;0.85;;;4.50;73.50;;;;;;4993770;28;20394;-72
2022/03/06 09:51:16;;;;;;;0.40;0.30;;;4.60;73.70;;;;;;4993163;28;20489;-72
2022/03/06 09:53:42;;;;;;;0.40;0.20;;;4.70;73.20;;;;;;4991454;28;20548;-72
2022/03/06 09:56:07;;;;;;;0.85;0.82;;;4.80;72.90;;;;;;4991663;28;20724;-72
2022/03/06 09:58:33;;;;;;;0.70;0.70;;;4.90;73.60;;;;;;4991899;28;20422;-73
2022/03/06 10:00:59;;;;;;;0.40;0.30;;;4.90;72.90;;;;;;4993120;28;20390;-72
2022/03/06 10:03:25;;;;;;;0.40;0.20;;;4.90;72.20;;;;;;4992230;28;20395;-73
2022/03/06 10:05:51;;;;;;;0.40;0.32;;;5.00;72.30;;;;;;4976194;28;20867;-73
2022/03/06 10:08:24;;;;;;;0.40;0.20;;;5.10;72.80;;;;;;4992813;28;20792;-73
2022/03/06 10:11:02;;;;;;;0.80;0.80;;;5.10;71.10;;;;;;4993403;28;20832;-73
2022/03/06 10:13:32;;;;;;;0.50;0.50;;;5.20;71.00;;;;;;4992719;28;20401;-74
2022/03/06 10:16:03;;;;;;;0.40;0.20;;;5.30;71.10;;;;;;4976083;28;20433;-73
2022/03/06 10:18:31;;;;;;;0.80;0.80;;;5.30;72.10;;;;;;4993007;28;20402;-73
2022/03/06 10:21:19;;;;;;;0.60;0.60;;;5.50;71.00;;;;;;4993532;28;20716;-74
2022/03/06 10:23:46;;;;;;;0.40;0.30;;;5.80;69.20;;;;;;4992756;28;20445;-73
2022/03/06 10:26:16;;;;;;;0.40;0.20;;;5.70;69.10;;;;;;4975932;28;20473;-73
2022/03/06 10:28:50;;;;;;;1.13;1.05;;;5.70;68.00;;;;;;4992606;28;20437;-73
2022/03/06 10:31:18;;;;;;;0.40;0.20;;;5.90;68.80;;;;;;4993339;28;20417;-72
2022/03/06 10:34:04;;;;;;;0.40;0.30;;;5.90;66.20;;;;;;4973972;28;20485;-72
2022/03/06 10:36:51;;;;;;;0.40;0.40;;;5.90;65.70;;;;;;4992928;28;20375;-72
2022/03/06 10:39:19;;;;;;;0.40;0.20;;;5.80;65.30;;;;;;4993085;28;20780;-72
2022/03/06 10:41:48;;;;;;;0.50;0.50;;;6.10;65.20;;;;;;4992541;28;20962;-72
2022/03/06 10:44:15;;;;;;;0.65;0.65;;;6.10;64.20;;;;;;4992803;28;20398;-71
2022/03/06 10:46:42;;;;;;;0.40;0.40;;;6.20;64.10;;;;;;4991687;28;20390;-72
2022/03/06 10:49:16;;;;;;;0.50;0.50;;;6.30;64.60;;;;;;4975247;28;20401;-72
2022/03/06 10:51:44;;;;;;;0.40;0.30;;;6.60;64.70;;;;;;4991625;28;20423;-72
2022/03/06 10:54:13;;;;;;;0.40;0.20;;;6.80;63.20;;;;;;4992706;28;20386;-72
2022/03/06 10:56:39;;;;;;;1.60;1.50;;;6.90;62.60;;;;;;4991848;28;20391;-72
2022/03/06 10:59:06;;;;;;;0.40;0.20;;;6.90;61.80;;;;;;4991517;28;20821;-72
2022/03/06 11:01:33;;;;;;;0.80;0.80;;;7.10;60.90;;;;;;4992420;28;20887;-72
2022/03/06 11:04:03;;;;;;;0.60;0.60;;;7.10;60.00;;;;;;4973806;28;20398;-72
2022/03/06 11:06:37;;;;;;;0.70;0.70;;;7.10;59.90;;;;;;4992052;28;20382;-71
2022/03/06 11:09:13;;;;;;;0.40;0.30;;;7.10;58.70;;;;;;4991807;28;20383;-72
2022/03/06 11:11:47;;;;;;;0.40;0.20;;;7.40;59.40;;;;;;4992220;28;20505;-72
2022/03/06 11:14:14;;;;;;;0.40;0.20;;;7.70;58.50;;;;;;4991501;28;20383;-72
2022/03/06 11:16:40;;;;;;;0.50;0.50;;;8.00;58.70;;;;;;4992263;28;20385;-73
2022/03/06 11:19:08;;;;;;;3.90;1.07;;;8.10;57.40;;;;;;4974019;28;20917;-73
2022/03/06 11:21:39;;;;;;;0.40;0.20;;;7.80;57.00;;;;;;4974682;28;20406;-72
2022/03/06 11:24:16;;;;;;;0.40;0.20;;;7.90;55.90;;;;;;4991056;28;20884;-73
2022/03/06 11:27:19;;;;;;;0.40;0.30;;;8.00;56.00;;;;;;4974670;28;20492;-71
2022/03/06 11:29:55;;;;;;;0.60;0.60;;;8.50;54.70;;;;;;4992006;28;20399;-71
2022/03/06 11:32:29;;;;;;;0.60;0.60;;;8.90;54.70;;;;;;4991000;28;20624;-71
2022/03/06 11:35:23;;;;;;;0.80;0.80;;;8.90;53.40;;;;;;4991930;28;20398;-71
2022/03/06 11:37:48;;;;;;;1.30;1.20;;;9.30;52.90;;;;;;4988964;28;20453;-71
2022/03/06 11:40:41;;;;;;;0.40;0.20;;;10.00;50.90;;;;;;4973632;28;20429;-71
2022/03/06 11:43:10;;;;;;;0.50;0.50;;;10.40;51.40;;;;;;4991956;28;20402;-71
2022/03/06 11:45:53;;;;;;;0.40;0.20;;;11.10;49.60;;;;;;4991931;28;20393;-70
2022/03/06 11:48:34;;;;;;;0.40;0.30;;;11.10;48.80;;;;;;4990842;28;20438;-71
2022/03/06 11:51:14;;;;;;;0.40;0.30;;;11.70;46.80;;;;;;4991982;28;20402;-71
2022/03/06 11:53:50;;;;;;;0.90;0.50;;;11.20;45.00;;;;;;4987108;28;20413;-71
2022/03/06 11:56:31;;;;;;;0.40;0.30;;;11.20;45.50;;;;;;4991052;28;20438;-71
2022/03/06 11:59:19;;;;;;;3.63;1.33;;;11.60;45.60;;;;;;4991556;28;20390;-72
2022/03/06 12:02:10;;;;;;;0.40;0.20;;;11.60;44.50;;;;;;4991496;28;20405;-72
2022/03/06 12:04:45;;;;;;;0.40;0.30;;;11.60;43.90;;;;;;4990849;28;20390;-72
2022/03/06 12:07:12;;;;;;;0.40;0.30;;;11.20;43.40;;;;;;4991532;28;20939;-71
2022/03/06 12:09:43;;;;;;;0.40;0.20;;;12.50;43.10;;;;;;4990267;28;20395;-72
2022/03/06 12:12:14;;;;;;;0.63;0.55;;;12.00;41.90;;;;;;4991866;28;20419;-71
2022/03/06 12:14:55;;;;;;;0.40;0.20;;;12.30;42.90;;;;;;4990945;28;20413;-72
2022/03/06 12:17:29;;;;;;;0.60;0.60;;;13.30;41.20;;;;;;4991653;28;20864;-72
2022/03/06 12:19:55;;;;;;;0.50;0.40;;;12.70;43.30;;;;;;4988165;28;20489;-72
2022/03/06 12:22:30;;;;;;;0.90;0.90;;;12.70;40.70;;;;;;4991191;28;20513;-72
2022/03/06 12:25:10;;;;;;;1.30;0.70;;;12.70;40.70;;;;;;4990661;28;20391;-72
2022/03/06 12:27:38;;;;;;;0.40;0.30;;;13.00;40.20;;;;;;4990304;28;20791;-72
2022/03/06 12:30:09;;;;;;;0.90;0.80;;;13.90;41.60;;;;;;4990878;28;20767;-72
2022/03/06 12:32:37;;;;;;;0.40;0.40;;;13.10;39.10;;;;;;4991251;28;20418;-72
2022/03/06 12:35:14;;;;;;;0.40;0.20;;;13.90;40.10;;;;;;4973598;28;20434;-72
2022/03/06 12:38:02;;;;;;;0.50;0.50;;;13.70;38.70;;;;;;4990783;28;20741;-72
2022/03/06 12:40:31;;;;;;;0.40;0.40;;;13.20;38.90;;;;;;4990815;28;20890;-71
2022/03/06 12:43:04;;;;;;;0.40;0.20;;;12.80;37.60;;;;;;4990514;28;20900;-72
2022/03/06 12:45:32;;;;;;;0.40;0.40;;;13.20;37.40;;;;;;4991485;28;20424;-71
2022/03/06 12:47:58;;;;;;;1.25;1.15;;;12.50;38.10;;;;;;4990775;28;20390;-72
2022/03/06 12:50:27;;;;;;;0.40;0.20;;;12.70;38.50;;;;;;4973494;28;20422;-72
2022/03/06 12:52:54;;;;;;;0.40;0.30;;;13.30;40.50;;;;;;4987493;28;20512;-72
2022/03/06 12:55:22;;;;;;;0.40;0.30;;;13.20;39.30;;;;;;4984066;28;20478;-71